createdAt,value
2018-08-27T00:00:05.045Z,34.5
2018-08-27T00:02:13.370Z,34.3
2018-08-27T00:04:05.064Z,34.3
2018-08-27T00:06:07.835Z,34.4
2018-08-27T00:08:05.047Z,34.4
2018-08-27T00:10:05.732Z,34.6
2018-08-27T00:12:10.974Z,35
2018-08-27T00:14:05.678Z,35
2018-08-27T00:16:05.477Z,35.2
2018-08-27T00:18:07.951Z,35.2
2018-08-27T00:20:05.673Z,35.2
2018-08-27T00:22:10.505Z,35
2018-08-27T00:24:05.776Z,35
2018-08-27T00:26:05.534Z,35
2018-08-27T00:28:05.249Z,35.6
2018-08-27T00:30:05.971Z,35
2018-08-27T00:32:05.696Z,35.6
2018-08-27T00:34:08.423Z,35.1
2018-08-27T00:36:05.109Z,35.2
2018-08-27T00:38:05.801Z,35.4
2018-08-27T00:40:05.502Z,35.4
2018-08-27T00:42:05.216Z,35.8
2018-08-27T00:44:05.883Z,35.9
2018-08-27T00:46:05.611Z,35.7
2018-08-27T00:48:08.465Z,36.5
2018-08-27T00:50:05.222Z,36.4
2018-08-27T00:52:08.471Z,36.2
2018-08-27T00:54:05.767Z,36
2018-08-27T00:56:05.470Z,36.8
2018-08-27T00:58:05.216Z,36.7
2018-08-27T01:00:05.977Z,36.8
2018-08-27T01:02:05.697Z,36.7
2018-08-27T01:04:06.064Z,37
2018-08-27T01:06:05.758Z,36.7
2018-08-27T01:08:08.029Z,36.5
2018-08-27T01:10:05.369Z,36.5
2018-08-27T01:12:05.134Z,36.8
2018-08-27T01:14:05.816Z,36.5
2018-08-27T01:16:05.484Z,36.7
2018-08-27T01:18:05.407Z,36.3
2018-08-27T01:20:05.089Z,36.3
2018-08-27T01:22:05.861Z,36.5
2018-08-27T01:24:05.609Z,36.1
2018-08-27T01:26:05.295Z,36.1
2018-08-27T01:28:05.976Z,36.2
2018-08-27T01:30:05.682Z,36.5
2018-08-27T01:32:05.406Z,36.4
2018-08-27T01:34:05.234Z,36.4
2018-08-27T01:36:06.060Z,36.4
2018-08-27T01:38:08.297Z,36.4
2018-08-27T01:40:05.068Z,36.4
2018-08-27T01:42:07.839Z,36.8
2018-08-27T01:44:05.589Z,36.7
2018-08-27T01:46:05.363Z,37.3
2018-08-27T01:48:07.612Z,37.3
2018-08-27T01:50:05.887Z,37
2018-08-27T01:52:08.117Z,37
2018-08-27T01:54:05.459Z,37.1
2018-08-27T01:56:05.209Z,37
2018-08-27T01:58:08.536Z,37.3
2018-08-27T02:00:05.357Z,37.3
2018-08-27T02:02:07.703Z,37.7
2018-08-27T02:04:07.948Z,38
2018-08-27T02:06:05.682Z,37.8
2018-08-27T02:08:05.410Z,38.4
2018-08-27T02:10:05.173Z,38.1
2018-08-27T02:12:05.875Z,38.6
2018-08-27T02:14:10.639Z,38.8
2018-08-27T02:16:05.902Z,38.8
2018-08-27T02:18:05.803Z,39
2018-08-27T02:20:05.028Z,38.8
2018-08-27T02:22:05.693Z,38.9
2018-08-27T02:24:05.407Z,38.9
2018-08-27T02:26:05.184Z,39
2018-08-27T02:28:05.886Z,39
2018-08-27T02:30:05.126Z,38.9
2018-08-27T02:32:08.346Z,39.3
2018-08-27T02:34:05.070Z,39.4
2018-08-27T02:36:07.827Z,39.8
2018-08-27T02:38:09.054Z,40.1
2018-08-27T02:40:05.956Z,40.1
2018-08-27T02:42:08.200Z,40.2
2018-08-27T02:44:05.878Z,40.2
2018-08-27T02:46:05.615Z,40.4
2018-08-27T02:48:05.363Z,40.2
2018-08-27T02:50:05.042Z,40.2
2018-08-27T02:52:05.730Z,40.4
2018-08-27T02:54:05.519Z,40.5
2018-08-27T02:56:07.943Z,40.8
2018-08-27T02:58:05.633Z,40.8
2018-08-27T03:00:07.916Z,40.8
2018-08-27T03:02:05.117Z,40.8
2018-08-27T03:04:05.853Z,41.2
2018-08-27T03:06:05.533Z,41.1
2018-08-27T03:08:05.269Z,41
2018-08-27T03:10:05.979Z,41.8
2018-08-27T03:12:05.734Z,41.7
2018-08-27T03:14:07.985Z,41.4
2018-08-27T03:16:05.805Z,41.4
2018-08-27T03:18:05.867Z,41.7
2018-08-27T03:20:08.086Z,41.8
2018-08-27T03:22:12.851Z,41.8
2018-08-27T03:24:05.543Z,41.9
2018-08-27T03:26:05.503Z,42.1
2018-08-27T03:28:05.314Z,42
2018-08-27T03:30:05.667Z,42.1
2018-08-27T03:32:07.918Z,42
2018-08-27T03:34:05.810Z,42
2018-08-27T03:36:05.153Z,42.5
2018-08-27T03:38:05.866Z,42
2018-08-27T03:40:05.585Z,42.3
2018-08-27T03:42:07.813Z,42.8
2018-08-27T03:44:07.539Z,42.3
2018-08-27T03:46:05.258Z,42.3
2018-08-27T03:48:05.029Z,42.6
2018-08-27T03:50:05.796Z,42.8
2018-08-27T03:52:05.526Z,42.7
2018-08-27T03:54:05.821Z,42.6
2018-08-27T03:56:05.519Z,43.2
2018-08-27T03:58:05.981Z,42.9
2018-08-27T04:00:05.933Z,43
2018-08-27T04:02:05.658Z,43.3
2018-08-27T04:04:05.382Z,43.3
2018-08-27T04:06:05.219Z,43.4
2018-08-27T04:08:05.919Z,43.4
2018-08-27T04:10:10.665Z,43.3
2018-08-27T04:12:12.956Z,43.4
2018-08-27T04:14:12.822Z,43.6
2018-08-27T04:16:08.062Z,43.8
2018-08-27T04:18:05.951Z,43.8
2018-08-27T04:20:05.697Z,44
2018-08-27T04:22:05.523Z,44.3
2018-08-27T04:24:07.804Z,44
2018-08-27T04:26:13.087Z,43.9
2018-08-27T04:28:08.331Z,44.1
2018-08-27T04:30:05.604Z,44.1
2018-08-27T04:32:08.793Z,44.1
2018-08-27T04:34:05.397Z,44.4
2018-08-27T04:36:08.232Z,44.6
2018-08-27T04:38:05.916Z,44.6
2018-08-27T04:40:05.751Z,44.4
2018-08-27T04:42:05.472Z,44.1
2018-08-27T04:44:05.179Z,44
2018-08-27T04:46:06.017Z,43.9
2018-08-27T04:48:05.903Z,43.8
2018-08-27T04:50:05.618Z,43.7
2018-08-27T04:52:07.943Z,43.4
2018-08-27T04:54:05.752Z,43.3
2018-08-27T04:56:05.448Z,43.3
2018-08-27T04:58:05.291Z,43.2
2018-08-27T05:00:08.576Z,43.1
2018-08-27T05:02:07.769Z,43.2
2018-08-27T05:04:13.015Z,42.9
2018-08-27T05:06:05.301Z,42.9
2018-08-27T05:08:06.040Z,42.6
2018-08-27T05:10:06.131Z,42.9
2018-08-27T05:12:05.065Z,42.5
2018-08-27T05:14:05.754Z,42.5
2018-08-27T05:16:05.544Z,42.6
2018-08-27T05:18:05.523Z,42.5
2018-08-27T05:20:05.231Z,42.6
2018-08-27T05:22:08.504Z,42.5
2018-08-27T05:24:10.281Z,42.5
2018-08-27T05:26:05.012Z,42.5
2018-08-27T05:28:05.173Z,42.4
2018-08-27T05:30:10.919Z,42.3
2018-08-27T05:32:05.685Z,42.3
2018-08-27T05:34:07.981Z,42.2
2018-08-27T05:36:10.911Z,42.2
2018-08-27T05:38:06.054Z,42.2
2018-08-27T05:40:05.204Z,42.3
2018-08-27T05:42:06.163Z,42.2
2018-08-27T05:44:05.878Z,42.2
2018-08-27T05:46:05.617Z,42.3
2018-08-27T05:48:07.854Z,42.1
2018-08-27T05:50:05.570Z,42.1
2018-08-27T05:52:05.301Z,42.4
2018-08-27T05:54:05.081Z,42.4
2018-08-27T05:56:05.817Z,42.3
2018-08-27T05:58:05.525Z,42.4
2018-08-27T06:00:07.809Z,42.3
2018-08-27T06:02:05.540Z,42.3
2018-08-27T06:04:05.280Z,42.4
2018-08-27T06:06:08.539Z,42.4
2018-08-27T06:08:05.262Z,42.4
2018-08-27T06:10:06.220Z,42.3
2018-08-27T06:12:05.934Z,42.5
2018-08-27T06:14:05.653Z,42.5
2018-08-27T06:16:08.365Z,42.4
2018-08-27T06:18:05.061Z,42.4
2018-08-27T06:20:05.767Z,42.2
2018-08-27T06:22:16.145Z,42.3
2018-08-27T06:24:05.561Z,42.3
2018-08-27T06:26:10.843Z,42.5
2018-08-27T06:28:05.519Z,42.5
2018-08-27T06:30:05.244Z,42.6
2018-08-27T06:32:08.508Z,42.4
2018-08-27T06:34:05.761Z,42.3
2018-08-27T06:36:11.066Z,42.4
2018-08-27T06:38:06.042Z,42.5
2018-08-27T06:40:05.295Z,42.3
2018-08-27T06:42:06.037Z,42.6
2018-08-27T06:44:05.781Z,42.8
2018-08-27T06:46:13.187Z,42.3
2018-08-27T06:48:07.627Z,42.5
2018-08-27T06:50:05.297Z,42.2
2018-08-27T06:52:05.135Z,42.4
2018-08-27T06:54:05.897Z,42.6
2018-08-27T06:56:05.148Z,42.8
2018-08-27T06:58:05.342Z,42.8
2018-08-27T07:00:07.600Z,42.7
2018-08-27T07:02:05.425Z,42.5
2018-08-27T07:04:05.268Z,42.7
2018-08-27T07:06:06.014Z,42.7
2018-08-27T07:08:08.296Z,43
2018-08-27T07:10:05.989Z,43
2018-08-27T07:12:05.679Z,42.9
2018-08-27T07:14:05.426Z,43
2018-08-27T07:16:05.171Z,42.9
2018-08-27T07:18:05.120Z,42.8
2018-08-27T07:20:05.936Z,42.9
2018-08-27T07:22:05.767Z,42.8
2018-08-27T07:24:08.018Z,43
2018-08-27T07:26:05.314Z,43.1
2018-08-27T07:28:05.102Z,42.9
2018-08-27T07:30:05.845Z,43.2
2018-08-27T07:32:05.506Z,42.9
2018-08-27T07:34:05.156Z,43.1
2018-08-27T07:36:05.993Z,43.1
2018-08-27T07:38:05.969Z,43.4
2018-08-27T07:40:05.682Z,43.5
2018-08-27T07:42:07.902Z,43.3
2018-08-27T07:44:08.112Z,43.3
2018-08-27T07:46:05.764Z,43.3
2018-08-27T07:48:05.429Z,43.2
2018-08-27T07:50:07.662Z,43.3
2018-08-27T07:52:05.826Z,43.3
2018-08-27T07:54:05.698Z,43.2
2018-08-27T07:56:05.426Z,43.3
2018-08-27T07:58:05.139Z,43.1
2018-08-27T08:00:05.837Z,43.3
2018-08-27T08:02:05.544Z,43.4
2018-08-27T08:04:05.257Z,43.3
2018-08-27T08:06:06.059Z,43.1
2018-08-27T08:08:05.978Z,43.3
2018-08-27T08:10:05.741Z,43.3
2018-08-27T08:12:08.167Z,43.4
2018-08-27T08:14:05.880Z,43.4
2018-08-27T08:16:05.577Z,43.5
2018-08-27T08:18:05.463Z,43.5
2018-08-27T08:20:05.147Z,43.5
2018-08-27T08:22:05.328Z,43.5
2018-08-27T08:24:10.093Z,43.4
2018-08-27T08:26:05.800Z,43.4
2018-08-27T08:28:05.071Z,43.7
2018-08-27T08:30:05.786Z,43.9
2018-08-27T08:32:05.551Z,43.8
2018-08-27T08:34:05.846Z,43.8
2018-08-27T08:36:05.581Z,43.7
2018-08-27T08:38:10.343Z,43.8
2018-08-27T08:40:05.344Z,43.8
2018-08-27T08:42:05.177Z,43.8
2018-08-27T08:44:10.973Z,43.6
2018-08-27T08:46:05.752Z,43.6
2018-08-27T08:48:05.497Z,43.5
2018-08-27T08:50:05.308Z,43.7
2018-08-27T08:52:06.077Z,43.7
2018-08-27T08:54:05.746Z,43.5
2018-08-27T08:56:05.454Z,43.4
2018-08-27T08:58:05.704Z,43.3
2018-08-27T09:00:05.450Z,43.5
2018-08-27T09:02:05.140Z,43.3
2018-08-27T09:04:08.409Z,43.4
2018-08-27T09:06:05.078Z,43.4
2018-08-27T09:08:05.953Z,43.4
2018-08-27T09:10:06.008Z,43.5
2018-08-27T09:12:05.259Z,43.4
2018-08-27T09:14:05.524Z,43.5
2018-08-27T09:16:07.753Z,43.2
2018-08-27T09:18:08.274Z,43.5
2018-08-27T09:20:05.916Z,43.5
2018-08-27T09:22:05.620Z,43.5
2018-08-27T09:24:07.871Z,43.3
2018-08-27T09:26:13.153Z,43.8
2018-08-27T09:28:10.910Z,44.1
2018-08-27T09:30:05.660Z,43.8
2018-08-27T09:32:07.920Z,44
2018-08-27T09:34:05.708Z,44
2018-08-27T09:36:05.347Z,44.2
2018-08-27T09:38:05.032Z,44
2018-08-27T09:40:05.699Z,44.4
2018-08-27T09:42:08.435Z,44.5
2018-08-27T09:44:05.102Z,44.5
2018-08-27T09:46:05.802Z,44.8
2018-08-27T09:48:08.000Z,44.6
2018-08-27T09:50:05.296Z,44.5
2018-08-27T09:52:05.972Z,44.6
2018-08-27T09:54:05.689Z,44.3
2018-08-27T09:56:05.343Z,44.5
2018-08-27T09:58:05.050Z,44.4
2018-08-27T10:00:05.306Z,44.6
2018-08-27T10:02:08.074Z,44.9
2018-08-27T10:04:05.757Z,44.9
2018-08-27T10:06:07.984Z,44.9
2018-08-27T10:08:05.772Z,45
2018-08-27T10:10:07.989Z,44.9
2018-08-27T10:12:05.677Z,44.9
2018-08-27T10:14:06.049Z,45.2
2018-08-27T10:16:05.714Z,45.2
2018-08-27T10:18:05.642Z,45.1
2018-08-27T10:20:05.371Z,45.1
2018-08-27T10:22:05.177Z,44.9
2018-08-27T10:24:10.989Z,44.7
2018-08-27T10:26:05.209Z,44.7
2018-08-27T10:28:05.934Z,44.7
2018-08-27T10:30:05.268Z,44.9
2018-08-27T10:32:08.071Z,44.7
2018-08-27T10:34:08.273Z,44.4
2018-08-27T10:36:05.953Z,44.5
2018-08-27T10:38:10.710Z,44.6
2018-08-27T10:40:07.989Z,44.5
2018-08-27T10:42:05.674Z,44.5
2018-08-27T10:44:05.384Z,44.5
2018-08-27T10:46:05.659Z,44.6
2018-08-27T10:48:05.367Z,44.4
2018-08-27T10:50:07.829Z,44.5
2018-08-27T10:52:05.737Z,44.7
2018-08-27T10:54:05.427Z,44.6
2018-08-27T10:56:05.088Z,44.6
2018-08-27T10:58:05.786Z,44.6
2018-08-27T11:00:05.485Z,44
2018-08-27T11:02:07.755Z,44
2018-08-27T11:04:05.545Z,44.2
2018-08-27T11:06:07.743Z,44.1
2018-08-27T11:08:06.001Z,44.1
2018-08-27T11:10:05.257Z,43.8
2018-08-27T11:12:08.540Z,44.1
2018-08-27T11:14:05.323Z,43.9
2018-08-27T11:16:05.251Z,43.8
2018-08-27T11:18:05.488Z,44
2018-08-27T11:20:07.832Z,43.6
2018-08-27T11:22:08.443Z,43.4
2018-08-27T11:24:05.131Z,43.4
2018-08-27T11:26:05.789Z,43.6
2018-08-27T11:28:05.482Z,43.6
2018-08-27T11:30:05.769Z,43.4
2018-08-27T11:32:05.568Z,43.6
2018-08-27T11:34:05.247Z,43.6
2018-08-27T11:36:11.016Z,43.6
2018-08-27T11:38:05.719Z,43.6
2018-08-27T11:40:05.495Z,43.6
2018-08-27T11:42:05.190Z,43.6
2018-08-27T11:44:10.914Z,43.6
2018-08-27T11:46:05.590Z,43.6
2018-08-27T11:48:05.427Z,43.6
2018-08-27T11:50:05.210Z,43.4
2018-08-27T11:52:06.055Z,43.3
2018-08-27T11:54:05.774Z,43.3
2018-08-27T11:56:05.455Z,43.2
2018-08-27T11:58:05.235Z,43.3
2018-08-27T12:00:05.554Z,43.2
2018-08-27T12:02:11.017Z,43.1
2018-08-27T12:04:05.721Z,43.1
2018-08-27T12:06:05.424Z,43.1
2018-08-27T12:08:05.089Z,43.1
2018-08-27T12:10:05.860Z,43
2018-08-27T12:12:05.134Z,43
2018-08-27T12:14:05.860Z,43
2018-08-27T12:16:05.603Z,42.9
2018-08-27T12:18:05.549Z,42.8
2018-08-27T12:20:07.776Z,42.8
2018-08-27T12:22:07.542Z,42.8
2018-08-27T12:24:05.227Z,42.8
2018-08-27T12:26:06.009Z,42.8
2018-08-27T12:28:05.789Z,42.9
2018-08-27T12:30:06.018Z,42.9
2018-08-27T12:32:08.296Z,42.6
2018-08-27T12:34:06.034Z,42.6
2018-08-27T12:36:05.738Z,42.5
2018-08-27T12:38:07.913Z,42.5
2018-08-27T12:40:05.635Z,42.5
2018-08-27T12:42:05.348Z,42.7
2018-08-27T12:44:05.055Z,42.4
2018-08-27T12:46:08.370Z,42.6
2018-08-27T12:48:05.161Z,42.4
2018-08-27T12:50:05.899Z,42.6
2018-08-27T12:52:08.130Z,42.5
2018-08-27T12:54:05.888Z,42.5
2018-08-27T12:56:10.677Z,42.5
2018-08-27T12:58:07.925Z,42.3
2018-08-27T13:00:05.580Z,42.4
2018-08-27T13:02:08.386Z,42.3
2018-08-27T13:04:05.129Z,42.3
2018-08-27T13:06:05.380Z,42.3
2018-08-27T13:08:05.240Z,42.1
2018-08-27T13:10:05.275Z,42.2
2018-08-27T13:12:11.034Z,42.1
2018-08-27T13:14:05.855Z,42.1
2018-08-27T13:16:05.574Z,42.3
2018-08-27T13:18:05.771Z,42.3
2018-08-27T13:20:05.520Z,42.3
2018-08-27T13:22:05.287Z,42.1
2018-08-27T13:24:05.525Z,42.3
2018-08-27T13:26:06.011Z,42.1
2018-08-27T13:28:05.804Z,42.2
2018-08-27T13:30:05.689Z,42.2
2018-08-27T13:32:05.874Z,42.2
2018-08-27T13:34:05.124Z,42.4
2018-08-27T13:36:05.819Z,42.2
2018-08-27T13:38:05.559Z,42.3
2018-08-27T13:40:05.406Z,42
2018-08-27T13:42:05.364Z,42.2
2018-08-27T13:44:05.156Z,42
2018-08-27T13:46:05.855Z,42.4
2018-08-27T13:48:08.122Z,42.2
2018-08-27T13:50:05.827Z,42.2
2018-08-27T13:52:08.067Z,42.2
2018-08-27T13:54:05.764Z,42.1
2018-08-27T13:56:05.464Z,42
2018-08-27T13:58:05.144Z,42.2
2018-08-27T14:00:10.975Z,42
2018-08-27T14:02:05.859Z,42
2018-08-27T14:04:05.517Z,42
2018-08-27T14:06:05.167Z,42
2018-08-27T14:08:05.931Z,42.1
2018-08-27T14:10:10.784Z,42
2018-08-27T14:12:08.074Z,41.8
2018-08-27T14:14:05.472Z,41.8
2018-08-27T14:16:10.247Z,41.8
2018-08-27T14:18:08.223Z,41.8
2018-08-27T14:20:06.515Z,42
2018-08-27T14:22:05.258Z,41.8
2018-08-27T14:24:06.037Z,41.6
2018-08-27T14:26:08.708Z,41.6
2018-08-27T14:28:05.285Z,41.6
2018-08-27T14:30:05.537Z,41.7
2018-08-27T14:32:05.227Z,41.6
2018-08-27T14:34:06.022Z,41.5
2018-08-27T14:36:05.729Z,41.4
2018-08-27T14:38:07.991Z,41.7
2018-08-27T14:40:05.665Z,41.7
2018-08-27T14:42:05.585Z,41.7
2018-08-27T14:44:05.583Z,41.6
2018-08-27T14:46:07.262Z,41.7
2018-08-27T14:48:06.272Z,41.5
2018-08-27T14:50:05.102Z,41.5
2018-08-27T14:52:05.879Z,41.4
2018-08-27T14:54:05.603Z,41.3
2018-08-27T14:56:05.521Z,41.4
2018-08-27T14:58:05.644Z,41.4
2018-08-27T15:00:08.407Z,41.5
2018-08-27T15:02:05.654Z,41.5
2018-08-27T15:04:10.447Z,41.4
2018-08-27T15:06:05.652Z,41.4
2018-08-27T15:08:05.356Z,41.5
2018-08-27T15:10:05.064Z,41.6
2018-08-27T15:12:05.799Z,41.4
2018-08-27T15:14:05.087Z,41.2
2018-08-27T15:16:05.790Z,41.5
2018-08-27T15:18:05.723Z,41.3
2018-08-27T15:20:05.445Z,41
2018-08-27T15:22:05.149Z,41.1
2018-08-27T15:24:06.041Z,41
2018-08-27T15:26:05.734Z,41.1
2018-08-27T15:28:05.420Z,40.9
2018-08-27T15:30:05.673Z,40.8
2018-08-27T15:32:05.427Z,41
2018-08-27T15:34:07.630Z,40.8
2018-08-27T15:36:05.262Z,40.8
2018-08-27T15:38:08.034Z,40.8
2018-08-27T15:40:05.678Z,40.8
2018-08-27T15:42:08.429Z,40.8
2018-08-27T15:44:05.084Z,40.8
2018-08-27T15:46:05.786Z,40.7
2018-08-27T15:48:05.537Z,40.6
2018-08-27T15:50:05.903Z,40.9
2018-08-27T15:52:05.849Z,40.7
2018-08-27T15:54:05.498Z,40.6
2018-08-27T15:56:05.534Z,40.8
2018-08-27T15:58:05.415Z,40.6
2018-08-27T16:00:07.641Z,40.6
2018-08-27T16:02:05.365Z,40.8
2018-08-27T16:04:05.189Z,40.7
2018-08-27T16:06:05.067Z,40.7
2018-08-27T16:08:05.266Z,40.6
2018-08-27T16:10:05.493Z,40.6
2018-08-27T16:12:05.476Z,40.5
2018-08-27T16:14:05.420Z,40.6
2018-08-27T16:16:07.671Z,40.6
2018-08-27T16:18:10.665Z,40.6
2018-08-27T16:20:05.402Z,40.6
2018-08-27T16:22:07.816Z,40.6
2018-08-27T16:24:05.614Z,40.6
2018-08-27T16:26:05.364Z,40.5
2018-08-27T16:28:05.117Z,40.6
2018-08-27T16:30:10.376Z,40.5
2018-08-27T16:32:05.037Z,40.5
2018-08-27T16:34:05.212Z,40.3
2018-08-27T16:36:10.952Z,40.5
2018-08-27T16:38:05.604Z,40.5
2018-08-27T16:40:05.272Z,40.5
2018-08-27T16:42:06.014Z,40.3
2018-08-27T16:44:08.333Z,40.5
2018-08-27T16:46:12.633Z,40.3
2018-08-27T16:48:05.348Z,40.5
2018-08-27T16:50:05.602Z,40.5
2018-08-27T16:52:05.310Z,40.6
2018-08-27T16:54:07.645Z,40.3
2018-08-27T16:56:07.865Z,40.5
2018-08-27T16:58:05.577Z,40.6
2018-08-27T17:00:05.330Z,40.6
2018-08-27T17:02:05.077Z,40.4
2018-08-27T17:04:05.769Z,40.4
2018-08-27T17:06:08.000Z,40.5
2018-08-27T17:08:05.700Z,40.5
2018-08-27T17:10:06.178Z,40.5
2018-08-27T17:12:05.096Z,40.6
2018-08-27T17:14:05.827Z,40.9
2018-08-27T17:16:05.501Z,41.1
2018-08-27T17:18:10.441Z,40.8
2018-08-27T17:20:05.732Z,40.8
2018-08-27T17:22:13.048Z,40.8
2018-08-27T17:24:05.753Z,40.8
2018-08-27T17:26:05.489Z,41.1
2018-08-27T17:28:05.222Z,40.9
2018-08-27T17:30:05.925Z,40.9
2018-08-27T17:32:08.144Z,40.8
2018-08-27T17:34:05.815Z,40.8
2018-08-27T17:36:13.109Z,41.1
2018-08-27T17:38:05.811Z,40.9
2018-08-27T17:40:05.036Z,40.9
2018-08-27T17:42:05.800Z,41.1
2018-08-27T17:44:04.974Z,40.9
2018-08-27T17:46:05.704Z,41
2018-08-27T17:48:05.452Z,41.1
2018-08-27T17:50:05.168Z,40.9
2018-08-27T17:52:05.905Z,41
2018-08-27T17:54:05.118Z,41
2018-08-27T17:56:10.876Z,41.2
2018-08-27T17:58:05.696Z,41.1
2018-08-27T18:00:05.647Z,41.3
2018-08-27T18:02:05.397Z,41
2018-08-27T18:04:05.110Z,41.3
2018-08-27T18:06:05.477Z,41.1
2018-08-27T18:08:05.211Z,41.3
2018-08-27T18:10:05.406Z,41.4
2018-08-27T18:12:05.134Z,41.1
2018-08-27T18:14:06.364Z,41.3
2018-08-27T18:16:05.047Z,41.3
2018-08-27T18:18:05.981Z,41.1
2018-08-27T18:20:05.724Z,41.2
2018-08-27T18:22:05.431Z,41.2
2018-08-27T18:24:05.250Z,41.3
2018-08-27T18:26:05.956Z,41.7
2018-08-27T18:28:05.697Z,41.9
2018-08-27T18:30:05.419Z,41.7
2018-08-27T18:32:07.634Z,41.8
2018-08-27T18:34:05.349Z,41.8
2018-08-27T18:36:05.029Z,41.7
2018-08-27T18:38:05.721Z,41.7
2018-08-27T18:40:05.446Z,41.7
2018-08-27T18:42:06.086Z,41.7
2018-08-27T18:44:08.459Z,41.7
2018-08-27T18:46:05.169Z,41.7
2018-08-27T18:48:07.645Z,41.6
2018-08-27T18:50:05.412Z,41.6
2018-08-27T18:52:07.674Z,41.6
2018-08-27T18:54:07.953Z,41.6
2018-08-27T18:56:10.697Z,41.6
2018-08-27T18:58:05.970Z,41.6
2018-08-27T19:00:05.726Z,41.4
2018-08-27T19:02:05.038Z,41.6
2018-08-27T19:04:05.709Z,41.6
2018-08-27T19:06:05.977Z,41.6
2018-08-27T19:08:05.670Z,41.6
2018-08-27T19:10:05.358Z,41.6
2018-08-27T19:12:05.089Z,41.7
2018-08-27T19:14:10.882Z,41.6
2018-08-27T19:16:05.177Z,41.8
2018-08-27T19:18:05.068Z,41.5
2018-08-27T19:20:08.255Z,41.2
2018-08-27T19:22:05.194Z,41.3
2018-08-27T19:24:06.115Z,41.1
2018-08-27T19:26:07.990Z,40.9
2018-08-27T19:28:05.850Z,40.8
2018-08-27T19:30:08.139Z,40.6
2018-08-27T19:32:05.254Z,40.5
2018-08-27T19:34:05.795Z,40.3
2018-08-27T19:36:10.919Z,40.4
2018-08-27T19:38:05.482Z,40.3
2018-08-27T19:40:05.226Z,40.2
2018-08-27T19:42:05.943Z,40.1
2018-08-27T19:44:05.725Z,40.1
2018-08-27T19:46:08.388Z,40
2018-08-27T19:48:13.355Z,39.8
2018-08-27T19:50:08.131Z,39.7
2018-08-27T19:52:05.839Z,40
2018-08-27T19:54:05.519Z,39.7
2018-08-27T19:56:10.304Z,39.7
2018-08-27T19:58:05.607Z,39.7
2018-08-27T20:00:05.373Z,39.7
2018-08-27T20:02:05.088Z,39.7
2018-08-27T20:04:05.847Z,39.7
2018-08-27T20:06:05.537Z,39.7
2018-08-27T20:08:07.833Z,40.1
2018-08-27T20:10:05.033Z,40.1
2018-08-27T20:12:10.819Z,40.1
2018-08-27T20:14:05.506Z,40.2
2018-08-27T20:16:06.479Z,39.9
2018-08-27T20:18:08.229Z,40.1
2018-08-27T20:20:05.955Z,40.1
2018-08-27T20:22:05.652Z,40
2018-08-27T20:24:05.980Z,40
2018-08-27T20:26:05.930Z,39.9
2018-08-27T20:28:05.824Z,39.9
2018-08-27T20:30:05.507Z,39.7
2018-08-27T20:32:05.899Z,39.7
2018-08-27T20:34:12.679Z,39.6
2018-08-27T20:36:05.431Z,39.7
2018-08-27T20:38:05.143Z,39.7
2018-08-27T20:40:05.030Z,39.6
2018-08-27T20:42:10.796Z,39.6
2018-08-27T20:44:05.581Z,39.6
2018-08-27T20:46:05.259Z,39.7
2018-08-27T20:48:05.500Z,39.7
2018-08-27T20:50:05.269Z,39.8
2018-08-27T20:52:08.542Z,39.5
2018-08-27T20:54:08.408Z,39.6
2018-08-27T20:56:05.094Z,39.6
2018-08-27T20:58:05.008Z,39.6
2018-08-27T21:00:05.393Z,39.6
2018-08-27T21:02:05.149Z,39.6
2018-08-27T21:04:05.526Z,39.6
2018-08-27T21:06:07.901Z,39.7
2018-08-27T21:08:05.571Z,39.7
2018-08-27T21:10:08.038Z,39.7
2018-08-27T21:12:05.071Z,39.5
2018-08-27T21:14:05.748Z,39.6
2018-08-27T21:16:06.029Z,39.6
2018-08-27T21:18:05.926Z,39.6
2018-08-27T21:20:05.597Z,39.9
2018-08-27T21:22:08.405Z,39.7
2018-08-27T21:24:05.108Z,39.7
2018-08-27T21:26:05.341Z,39.7
2018-08-27T21:28:12.620Z,39.9
2018-08-27T21:30:07.814Z,39.8
2018-08-27T21:32:05.557Z,39.8
2018-08-27T21:34:05.273Z,40
2018-08-27T21:36:06.004Z,40.1
2018-08-27T21:38:05.734Z,39.8
2018-08-27T21:40:05.459Z,39.9
2018-08-27T21:42:06.017Z,39.8
2018-08-27T21:44:14.858Z,39.9
2018-08-27T21:46:08.526Z,40.2
2018-08-27T21:48:05.417Z,39.9
2018-08-27T21:50:05.619Z,40.2
2018-08-27T21:52:05.626Z,40.2
2018-08-27T21:54:08.073Z,40.1
2018-08-27T21:56:05.995Z,40
2018-08-27T21:58:05.735Z,40.1
2018-08-27T22:00:05.413Z,40
2018-08-27T22:02:05.068Z,40.1
2018-08-27T22:04:05.818Z,40.1
2018-08-27T22:06:05.547Z,40.1
2018-08-27T22:08:07.807Z,40.1
2018-08-27T22:10:06.039Z,40.1
2018-08-27T22:12:05.280Z,40.1
2018-08-27T22:14:05.968Z,40.1
2018-08-27T22:16:13.411Z,40.1
2018-08-27T22:18:05.321Z,40.1
2018-08-27T22:20:05.980Z,40.1
2018-08-27T22:22:05.721Z,40.1
2018-08-27T22:24:05.246Z,40.2
2018-08-27T22:26:06.039Z,40.2
2018-08-27T22:28:08.524Z,40.2
2018-08-27T22:30:08.246Z,40.4
2018-08-27T22:32:05.947Z,40.2
2018-08-27T22:34:08.208Z,40.1
2018-08-27T22:36:09.097Z,40.2
2018-08-27T22:38:10.938Z,40.2
2018-08-27T22:40:05.656Z,40.2
2018-08-27T22:42:15.470Z,40.3
2018-08-27T22:44:05.169Z,40.3
2018-08-27T22:46:08.386Z,40.2
2018-08-27T22:48:05.165Z,40.2
2018-08-27T22:50:08.399Z,40.2
2018-08-27T22:52:05.191Z,40.2
2018-08-27T22:54:10.981Z,40.3
2018-08-27T22:56:05.211Z,40.3
2018-08-27T22:58:05.886Z,40.3
2018-08-27T23:00:05.221Z,40.3
2018-08-27T23:02:05.991Z,40.3
2018-08-27T23:04:10.744Z,40.3
2018-08-27T23:06:05.421Z,40.3
2018-08-27T23:08:05.631Z,40.3
2018-08-27T23:10:10.395Z,40.3
2018-08-27T23:12:07.616Z,40.4
2018-08-27T23:14:07.783Z,40.3
2018-08-27T23:16:05.462Z,40.5
2018-08-27T23:18:05.446Z,40.4
2018-08-27T23:20:05.119Z,40.3
2018-08-27T23:22:05.846Z,40.3
2018-08-27T23:24:05.708Z,40.3
2018-08-27T23:26:13.486Z,40.3
2018-08-27T23:28:05.757Z,40.3
2018-08-27T23:30:05.514Z,40.4
2018-08-27T23:32:05.277Z,40.4
2018-08-27T23:34:05.941Z,40.3
2018-08-27T23:36:05.671Z,40.3
2018-08-27T23:41:15.258Z,40.3
2018-08-27T23:44:19.690Z,40.3
2018-08-27T23:48:05.971Z,40.3
2018-08-27T23:50:08.202Z,40.2
2018-08-27T23:52:08.439Z,40.2
2018-08-27T23:54:05.177Z,40.2
2018-08-27T23:56:05.385Z,40.3
2018-08-27T23:58:07.602Z,40.3
